createdAt,value
2023-04-09T00:02:20.241Z,12.93
2023-04-09T00:04:47.143Z,12.13
2023-04-09T00:07:14.264Z,13.03
2023-04-09T00:09:41.113Z,12.13
2023-04-09T00:12:07.937Z,12.27
2023-04-09T00:14:35.156Z,11.85
2023-04-09T00:17:02.012Z,12.23
2023-04-09T00:19:28.898Z,13.20
2023-04-09T00:21:55.729Z,11.50
2023-04-09T00:24:22.539Z,11.95
2023-04-09T00:26:49.301Z,13.82
2023-04-09T00:29:16.063Z,12.20
2023-04-09T00:31:42.999Z,13.00
2023-04-09T00:34:10.238Z,11.48
2023-04-09T00:36:37.109Z,12.45
2023-04-09T00:39:03.936Z,14.57
2023-04-09T00:41:30.666Z,11.93
2023-04-09T00:43:57.913Z,13.33
2023-04-09T00:46:24.718Z,12.18
2023-04-09T00:48:51.978Z,11.57
2023-04-09T00:51:20.004Z,12.45
2023-04-09T00:53:46.938Z,11.10
2023-04-09T00:56:15.537Z,11.90
2023-04-09T00:58:42.491Z,12.50
2023-04-09T01:01:10.630Z,10.35
2023-04-09T01:03:38.269Z,10.95
2023-04-09T01:06:12.426Z,10.75
2023-04-09T01:09:00.111Z,10.83
2023-04-09T01:11:43.555Z,11.35
2023-04-09T01:14:44.078Z,10.90
2023-04-09T01:17:49.330Z,11.13
2023-04-09T01:20:30.737Z,10.23
2023-04-09T01:23:26.240Z,10.23
2023-04-09T01:26:18.958Z,9.30
2023-04-09T01:28:54.869Z,10.82
2023-04-09T01:31:28.908Z,10.15
2023-04-09T01:33:57.128Z,10.57
2023-04-09T01:36:25.864Z,10.00
2023-04-09T01:38:54.854Z,10.90
2023-04-09T01:41:24.407Z,10.02
2023-04-09T01:43:53.227Z,11.18
2023-04-09T01:46:21.814Z,10.10
2023-04-09T01:48:49.672Z,10.40
2023-04-09T01:51:19.107Z,10.35
2023-04-09T01:53:46.243Z,10.32
2023-04-09T01:56:13.238Z,10.27
2023-04-09T01:58:41.730Z,9.82
2023-04-09T02:01:36.119Z,11.57
2023-04-09T02:04:11.150Z,11.13
2023-04-09T02:06:52.630Z,9.20
2023-04-09T02:09:21.597Z,10.35
2023-04-09T02:11:50.113Z,9.23
2023-04-09T02:14:19.107Z,10.93
2023-04-09T02:16:48.304Z,9.15
2023-04-09T02:19:15.627Z,10.25
2023-04-09T02:21:42.651Z,10.02
2023-04-09T02:24:09.500Z,8.38
2023-04-09T02:26:36.398Z,9.93
2023-04-09T02:29:03.623Z,8.30
2023-04-09T02:31:30.612Z,9.43
2023-04-09T02:33:58.581Z,8.75
2023-04-09T02:36:25.422Z,9.95
2023-04-09T02:38:52.527Z,9.57
2023-04-09T02:41:19.604Z,10.63
2023-04-09T02:43:46.389Z,10.23
2023-04-09T02:46:14.297Z,10.00
2023-04-09T02:48:41.171Z,9.00
2023-04-09T02:51:08.153Z,7.87
2023-04-09T02:53:38.702Z,8.73
2023-04-09T02:56:06.160Z,9.00
2023-04-09T02:58:33.728Z,8.35
2023-04-09T03:01:01.314Z,9.50
2023-04-09T03:03:28.991Z,10.53
2023-04-09T03:05:55.909Z,9.98
2023-04-09T03:08:23.293Z,10.02
2023-04-09T03:10:50.239Z,10.07
2023-04-09T03:13:18.737Z,11.05
2023-04-09T03:15:45.551Z,8.23
2023-04-09T03:18:12.620Z,9.02
2023-04-09T03:20:39.895Z,8.65
2023-04-09T03:23:11.266Z,9.15
2023-04-09T03:25:42.403Z,9.02
2023-04-09T03:28:12.867Z,9.90
2023-04-09T03:30:53.712Z,9.80
2023-04-09T03:33:20.627Z,10.00
2023-04-09T03:35:56.242Z,8.95
2023-04-09T03:38:33.678Z,8.55
2023-04-09T03:41:06.366Z,10.20
2023-04-09T03:43:37.859Z,9.02
2023-04-09T03:46:31.369Z,8.73
2023-04-09T03:49:00.443Z,9.90
2023-04-09T03:51:36.217Z,9.55
2023-04-09T03:54:03.314Z,8.07
2023-04-09T03:56:30.739Z,9.30
2023-04-09T03:58:58.587Z,8.38
2023-04-09T04:01:34.896Z,10.15
2023-04-09T04:04:04.353Z,9.05
2023-04-09T04:06:38.365Z,11.57
2023-04-09T04:09:24.233Z,10.30
2023-04-09T04:11:58.053Z,10.18
2023-04-09T04:14:36.206Z,10.30
2023-04-09T04:17:13.602Z,8.77
2023-04-09T04:19:41.463Z,9.87
2023-04-09T04:22:08.337Z,11.35
2023-04-09T04:24:39.624Z,9.77
2023-04-09T04:27:07.478Z,9.75
2023-04-09T04:29:36.056Z,10.98
2023-04-09T04:32:04.618Z,8.80
2023-04-09T04:34:37.146Z,11.30
2023-04-09T04:37:14.038Z,11.20
2023-04-09T04:39:41.336Z,10.15
2023-04-09T04:42:11.923Z,9.20
2023-04-09T04:44:38.857Z,10.60
2023-04-09T04:47:32.858Z,8.65
2023-04-09T04:50:00.182Z,11.18
2023-04-09T04:52:27.403Z,9.32
2023-04-09T04:54:55.297Z,10.10
2023-04-09T04:57:24.500Z,9.63
2023-04-09T04:59:51.496Z,9.38
2023-04-09T05:02:19.594Z,10.30
2023-04-09T05:05:00.186Z,11.45
2023-04-09T05:07:35.003Z,10.45
2023-04-09T05:10:02.384Z,10.07
2023-04-09T05:12:35.630Z,10.57
2023-04-09T05:15:02.485Z,10.20
2023-04-09T05:17:30.435Z,10.38
2023-04-09T05:19:57.334Z,11.20
2023-04-09T05:22:32.563Z,10.13
2023-04-09T05:24:59.381Z,10.20
2023-04-09T05:27:27.222Z,9.55
2023-04-09T05:30:00.771Z,9.77
2023-04-09T05:32:29.022Z,10.20
2023-04-09T05:34:56.237Z,10.43
2023-04-09T05:37:26.076Z,11.60
2023-04-09T05:39:53.657Z,10.40
2023-04-09T05:42:20.618Z,10.13
2023-04-09T05:45:04.326Z,11.20
2023-04-09T05:47:31.774Z,10.47
2023-04-09T05:50:11.255Z,9.57
2023-04-09T05:52:38.798Z,11.75
2023-04-09T05:55:06.215Z,11.98
2023-04-09T05:57:43.814Z,12.30
2023-04-09T06:00:12.168Z,11.83
2023-04-09T06:02:45.692Z,11.07
2023-04-09T06:05:13.391Z,11.43
2023-04-09T06:07:40.369Z,11.63
2023-04-09T06:10:09.420Z,11.07
2023-04-09T06:12:36.391Z,13.27
2023-04-09T06:15:07.555Z,12.00
2023-04-09T06:17:36.017Z,12.38
2023-04-09T06:20:03.049Z,11.98
2023-04-09T06:22:29.900Z,11.52
2023-04-09T06:24:57.864Z,11.57
2023-04-09T06:27:25.012Z,12.85
2023-04-09T06:29:51.749Z,13.68
2023-04-09T06:32:18.884Z,14.32
2023-04-09T06:34:45.666Z,14.13
2023-04-09T06:37:12.524Z,12.80
2023-04-09T06:39:42.545Z,12.93
2023-04-09T06:42:12.725Z,13.32
2023-04-09T06:44:50.474Z,13.98
2023-04-09T06:47:17.295Z,15.73
2023-04-09T06:49:44.110Z,14.47
2023-04-09T06:52:11.044Z,15.05
2023-04-09T06:54:37.943Z,15.85
2023-04-09T06:57:04.675Z,14.15
2023-04-09T06:59:33.386Z,15.45
2023-04-09T07:02:01.207Z,15.63
2023-04-09T07:04:28.781Z,14.20
2023-04-09T07:06:55.686Z,15.05
2023-04-09T07:09:22.587Z,13.27
2023-04-09T07:11:49.303Z,14.23
2023-04-09T07:14:16.766Z,14.27
2023-04-09T07:16:43.489Z,12.60
2023-04-09T07:19:10.645Z,13.57
2023-04-09T07:21:37.666Z,14.27
2023-04-09T07:24:04.769Z,14.80
2023-04-09T07:26:31.647Z,14.63
2023-04-09T07:28:58.729Z,14.45
2023-04-09T07:31:25.576Z,14.73
2023-04-09T07:33:54.610Z,16.95
2023-04-09T07:36:21.677Z,15.27
2023-04-09T07:38:50.323Z,14.73
2023-04-09T07:41:17.126Z,13.55
2023-04-09T07:43:43.962Z,16.45
2023-04-09T07:46:21.271Z,15.05
2023-04-09T07:48:49.830Z,14.57
2023-04-09T07:51:16.753Z,13.73
2023-04-09T07:53:44.682Z,14.60
2023-04-09T07:56:11.588Z,17.98
2023-04-09T07:58:42.313Z,15.32
2023-04-09T08:01:09.759Z,15.10
2023-04-09T08:03:37.218Z,16.73
2023-04-09T08:06:05.443Z,14.70
2023-04-09T08:08:32.794Z,15.65
2023-04-09T08:10:59.540Z,14.80
2023-04-09T08:13:26.503Z,14.32
2023-04-09T08:15:53.296Z,18.23
2023-04-09T08:18:20.709Z,15.50
2023-04-09T08:20:48.804Z,16.05
2023-04-09T08:23:15.677Z,16.38
2023-04-09T08:25:42.515Z,16.65
2023-04-09T08:28:09.338Z,15.73
2023-04-09T08:30:36.156Z,17.15
2023-04-09T08:33:03.033Z,15.10
2023-04-09T08:35:33.583Z,14.40
2023-04-09T08:38:00.562Z,14.73
2023-04-09T08:40:27.325Z,13.97
2023-04-09T08:42:56.353Z,15.27
2023-04-09T08:45:23.347Z,16.60
2023-04-09T08:47:51.808Z,15.07
2023-04-09T08:50:19.845Z,15.45
2023-04-09T08:52:47.641Z,14.00
2023-04-09T08:55:14.472Z,15.50
2023-04-09T08:57:41.593Z,15.15
2023-04-09T09:00:08.899Z,15.02
2023-04-09T09:02:36.355Z,15.30
2023-04-09T09:05:03.673Z,15.50
2023-04-09T09:07:31.394Z,13.10
2023-04-09T09:10:02.501Z,15.43
2023-04-09T09:12:40.805Z,12.65
2023-04-09T09:15:29.743Z,12.65
2023-04-09T09:17:59.318Z,13.93
2023-04-09T09:20:27.099Z,12.80
2023-04-09T09:22:56.441Z,12.30
2023-04-09T09:25:23.843Z,12.38
2023-04-09T09:27:50.840Z,12.63
2023-04-09T09:30:22.603Z,12.60
2023-04-09T09:33:04.706Z,12.38
2023-04-09T09:35:31.734Z,12.30
2023-04-09T09:38:02.865Z,14.18
2023-04-09T09:40:29.847Z,13.35
2023-04-09T09:42:57.464Z,12.90
2023-04-09T09:45:25.522Z,13.32
2023-04-09T09:47:53.554Z,13.52
2023-04-09T09:50:24.536Z,14.52
2023-04-09T09:52:58.831Z,12.65
2023-04-09T09:55:29.575Z,14.57
2023-04-09T09:57:58.855Z,14.20
2023-04-09T10:00:27.268Z,13.15
2023-04-09T10:02:59.702Z,14.10
2023-04-09T10:05:26.754Z,11.90
2023-04-09T10:08:00.370Z,12.63
2023-04-09T10:10:27.894Z,14.10
2023-04-09T10:12:54.831Z,14.40
2023-04-09T10:15:21.796Z,12.18
2023-04-09T10:17:49.210Z,13.18
2023-04-09T10:20:24.350Z,12.80
2023-04-09T10:22:52.556Z,12.90
2023-04-09T10:25:24.481Z,11.50
2023-04-09T10:28:02.793Z,14.05
2023-04-09T10:30:36.821Z,11.93
2023-04-09T10:33:11.500Z,13.17
2023-04-09T10:35:38.619Z,13.30
2023-04-09T10:38:09.537Z,12.50
2023-04-09T10:40:50.856Z,12.02
2023-04-09T10:43:19.955Z,10.00
2023-04-09T10:45:49.077Z,12.87
2023-04-09T10:48:19.973Z,11.93
2023-04-09T10:50:50.541Z,12.32
2023-04-09T10:53:25.519Z,11.15
2023-04-09T10:55:54.269Z,12.68
2023-04-09T10:58:21.801Z,12.43
2023-04-09T11:00:50.496Z,11.73
2023-04-09T11:03:21.869Z,11.90
2023-04-09T11:05:53.879Z,11.70
2023-04-09T11:08:21.277Z,11.75
2023-04-09T11:10:50.501Z,10.50
2023-04-09T11:13:19.263Z,10.52
2023-04-09T11:15:46.204Z,9.73
2023-04-09T11:18:22.071Z,7.75
2023-04-09T11:20:49.324Z,9.95
2023-04-09T11:23:17.688Z,8.13
2023-04-09T11:25:49.419Z,9.65
2023-04-09T11:28:16.254Z,10.18
2023-04-09T11:30:43.435Z,7.88
2023-04-09T11:33:10.778Z,7.45
2023-04-09T11:35:37.721Z,8.83
2023-04-09T11:38:11.784Z,10.02
2023-04-09T11:40:42.605Z,9.00
2023-04-09T11:43:09.425Z,9.15
2023-04-09T11:45:36.362Z,10.27
2023-04-09T11:48:03.430Z,12.73
2023-04-09T11:50:32.148Z,11.38
2023-04-09T11:52:59.062Z,13.30
2023-04-09T11:55:28.279Z,14.43
2023-04-09T11:57:59.602Z,14.85
2023-04-09T12:00:27.539Z,13.13
2023-04-09T12:03:05.367Z,14.18
2023-04-09T12:05:35.507Z,16.05
2023-04-09T12:08:04.561Z,17.38
2023-04-09T12:10:33.557Z,13.05
2023-04-09T12:13:08.748Z,14.00
2023-04-09T12:15:38.583Z,15.02
2023-04-09T12:18:09.149Z,15.18
2023-04-09T12:20:39.923Z,12.73
2023-04-09T12:23:08.450Z,15.32
2023-04-09T12:25:38.220Z,14.00
2023-04-09T12:28:06.458Z,14.18
2023-04-09T12:30:34.487Z,14.45
2023-04-09T12:33:04.075Z,13.23
2023-04-09T12:35:31.196Z,14.82
2023-04-09T12:37:58.202Z,12.60
2023-04-09T12:40:25.227Z,12.00
2023-04-09T12:42:52.847Z,12.95
2023-04-09T12:45:21.875Z,13.10
2023-04-09T12:47:48.834Z,15.27
2023-04-09T12:50:16.555Z,14.07
2023-04-09T12:52:44.726Z,11.75
2023-04-09T12:55:12.530Z,11.05
2023-04-09T12:57:44.596Z,10.02
2023-04-09T13:00:12.232Z,10.20
2023-04-09T13:02:39.464Z,10.70
2023-04-09T13:05:06.813Z,11.15
2023-04-09T13:07:33.667Z,12.10
2023-04-09T13:10:00.453Z,11.75
2023-04-09T13:12:27.291Z,11.73
2023-04-09T13:14:54.897Z,12.33
2023-04-09T13:17:22.226Z,13.02
2023-04-09T13:19:50.633Z,14.30
2023-04-09T13:22:18.435Z,13.73
2023-04-09T13:24:45.226Z,15.10
2023-04-09T13:27:12.037Z,13.63
2023-04-09T13:29:38.935Z,15.15
2023-04-09T13:32:06.086Z,15.85
2023-04-09T13:34:34.470Z,13.95
2023-04-09T13:37:02.334Z,15.35
2023-04-09T13:39:29.269Z,13.30
2023-04-09T13:41:56.175Z,13.02
2023-04-09T13:44:24.880Z,13.90
2023-04-09T13:46:51.860Z,13.93
2023-04-09T13:49:19.032Z,12.55
2023-04-09T13:51:46.593Z,13.00
2023-04-09T13:54:13.431Z,11.15
2023-04-09T13:56:40.198Z,11.23
2023-04-09T13:59:07.173Z,11.85
2023-04-09T14:01:34.791Z,10.60
2023-04-09T14:04:01.856Z,11.27
2023-04-09T14:06:28.958Z,15.35
2023-04-09T14:08:56.000Z,13.43
2023-04-09T14:11:23.237Z,11.73
2023-04-09T14:13:50.194Z,11.88
2023-04-09T14:16:17.056Z,12.47
2023-04-09T14:18:43.870Z,12.63
2023-04-09T14:21:10.716Z,11.48
2023-04-09T14:23:39.172Z,13.07
2023-04-09T14:26:06.958Z,14.38
2023-04-09T14:28:33.858Z,13.33
2023-04-09T14:31:01.020Z,13.90
2023-04-09T14:33:28.176Z,18.67
2023-04-09T14:35:55.191Z,15.90
2023-04-09T14:38:22.988Z,14.88
2023-04-09T14:40:50.822Z,13.43
2023-04-09T14:43:17.697Z,13.30
2023-04-09T14:45:44.524Z,13.82
2023-04-09T14:48:11.409Z,12.93
2023-04-09T14:50:38.205Z,12.98
2023-04-09T14:53:05.083Z,12.13
2023-04-09T14:55:31.854Z,10.43
2023-04-09T14:57:59.918Z,11.10
2023-04-09T15:00:26.677Z,11.23
2023-04-09T15:02:53.642Z,10.45
2023-04-09T15:05:20.980Z,12.77
2023-04-09T15:07:47.878Z,13.13
2023-04-09T15:10:14.837Z,13.82
2023-04-09T15:12:41.765Z,13.05
2023-04-09T15:15:09.268Z,14.63
2023-04-09T15:17:36.323Z,15.87
2023-04-09T15:20:03.360Z,15.00
2023-04-09T15:22:30.208Z,13.88
2023-04-09T15:24:57.028Z,12.70
2023-04-09T15:27:23.988Z,11.88
2023-04-09T15:29:50.932Z,12.30
2023-04-09T15:32:18.134Z,14.05
2023-04-09T15:34:44.980Z,10.95
2023-04-09T15:37:11.803Z,12.35
2023-04-09T15:39:38.709Z,12.75
2023-04-09T15:42:06.327Z,12.03
2023-04-09T15:44:35.137Z,12.68
2023-04-09T15:47:01.920Z,12.05
2023-04-09T15:49:28.800Z,13.18
2023-04-09T15:51:55.559Z,11.25
2023-04-09T15:54:22.454Z,11.30
2023-04-09T15:56:49.252Z,10.73
2023-04-09T15:59:16.040Z,10.55
2023-04-09T16:01:42.898Z,11.32
2023-04-09T16:04:09.746Z,9.00
2023-04-09T16:06:38.655Z,9.60
2023-04-09T16:09:05.494Z,9.80
2023-04-09T16:11:32.275Z,9.77
2023-04-09T16:13:59.041Z,9.23
2023-04-09T16:16:26.070Z,8.95
2023-04-09T16:18:54.552Z,9.17
2023-04-09T16:21:21.517Z,9.90
2023-04-09T16:23:48.277Z,9.85
2023-04-09T16:26:15.070Z,9.88
2023-04-09T16:28:41.868Z,10.35
2023-04-09T16:31:08.804Z,9.53
2023-04-09T16:33:35.753Z,10.05
2023-04-09T16:36:02.724Z,8.27
2023-04-09T16:38:29.541Z,8.07
2023-04-09T16:40:56.327Z,10.65
2023-04-09T16:43:23.122Z,9.27
2023-04-09T16:45:50.103Z,11.52
2023-04-09T16:48:17.096Z,10.43
2023-04-09T16:50:43.972Z,9.68
2023-04-09T16:53:10.676Z,10.27
2023-04-09T16:55:37.849Z,10.37
2023-04-09T16:58:04.566Z,9.77
2023-04-09T17:00:31.365Z,9.07
2023-04-09T17:02:58.396Z,10.02
2023-04-09T17:05:25.618Z,10.70
2023-04-09T17:07:52.411Z,9.20
2023-04-09T17:10:20.373Z,11.38
2023-04-09T17:12:47.341Z,10.95
2023-04-09T17:15:14.198Z,10.25
2023-04-09T17:17:41.063Z,10.02
2023-04-09T17:20:08.385Z,10.37
2023-04-09T17:22:35.366Z,9.27
2023-04-09T17:25:02.206Z,9.80
2023-04-09T17:27:29.857Z,9.82
2023-04-09T17:29:56.709Z,10.60
2023-04-09T17:32:23.462Z,10.20
2023-04-09T17:34:51.033Z,10.98
2023-04-09T17:37:17.808Z,10.02
2023-04-09T17:39:44.548Z,10.05
2023-04-09T17:42:11.362Z,9.68
2023-04-09T17:44:38.279Z,10.97
2023-04-09T17:47:05.589Z,10.23
2023-04-09T17:49:32.813Z,9.75
2023-04-09T17:51:59.686Z,11.40
2023-04-09T17:54:26.466Z,11.32
2023-04-09T17:56:53.288Z,10.73
2023-04-09T17:59:20.093Z,10.77
2023-04-09T18:01:50.106Z,9.80
2023-04-09T18:04:17.316Z,10.40
2023-04-09T18:06:44.384Z,12.02
2023-04-09T18:09:11.378Z,9.23
2023-04-09T18:11:38.178Z,9.40
2023-04-09T18:14:05.130Z,9.35
2023-04-09T18:16:32.030Z,9.77
2023-04-09T18:18:58.925Z,11.68
2023-04-09T18:21:25.720Z,10.50
2023-04-09T18:23:52.563Z,11.50
2023-04-09T18:26:19.356Z,9.30
2023-04-09T18:28:46.148Z,10.02
2023-04-09T18:31:13.050Z,9.82
2023-04-09T18:33:39.974Z,9.77
2023-04-09T18:36:07.150Z,9.68
2023-04-09T18:38:34.013Z,10.70
2023-04-09T18:41:01.302Z,10.35
2023-04-09T18:43:28.331Z,10.20
2023-04-09T18:45:57.081Z,10.77
2023-04-09T18:48:24.633Z,10.50
2023-04-09T18:50:51.702Z,10.52
2023-04-09T18:53:18.432Z,10.18
2023-04-09T18:55:45.447Z,11.05
2023-04-09T18:58:12.570Z,11.10
2023-04-09T19:00:39.741Z,10.82
2023-04-09T19:03:06.716Z,11.45
2023-04-09T19:05:35.537Z,10.70
2023-04-09T19:08:03.468Z,12.20
2023-04-09T19:10:30.652Z,11.50
2023-04-09T19:12:57.494Z,10.95
2023-04-09T19:15:25.964Z,10.43
2023-04-09T19:17:53.374Z,11.55
2023-04-09T19:20:20.460Z,11.30
2023-04-09T19:22:51.257Z,13.03
2023-04-09T19:25:19.186Z,11.82
2023-04-09T19:27:46.187Z,11.70
2023-04-09T19:30:13.592Z,12.80
2023-04-09T19:32:40.688Z,13.00
2023-04-09T19:35:08.417Z,11.43
2023-04-09T19:37:35.326Z,13.68
2023-04-09T19:40:02.334Z,12.82
2023-04-09T19:42:29.141Z,11.40
2023-04-09T19:44:55.974Z,12.05
2023-04-09T19:47:22.875Z,12.20
2023-04-09T19:49:49.660Z,12.32
2023-04-09T19:52:16.510Z,11.07
2023-04-09T19:54:43.331Z,13.15
2023-04-09T19:57:10.133Z,11.25
2023-04-09T19:59:36.940Z,12.43
2023-04-09T20:02:03.781Z,11.82
2023-04-09T20:04:30.705Z,11.70
2023-04-09T20:06:57.523Z,11.52
2023-04-09T20:09:24.306Z,11.60
2023-04-09T20:11:51.167Z,12.37
2023-04-09T20:14:18.135Z,13.15
2023-04-09T20:16:45.000Z,10.85
2023-04-09T20:19:12.058Z,8.80
2023-04-09T20:21:38.822Z,11.18
2023-04-09T20:24:06.125Z,10.17
2023-04-09T20:26:32.978Z,11.55
2023-04-09T20:28:59.795Z,12.45
2023-04-09T20:31:26.657Z,14.23
2023-04-09T20:33:53.473Z,12.43
2023-04-09T20:36:20.326Z,11.63
2023-04-09T20:38:48.107Z,9.43
2023-04-09T20:41:14.854Z,10.73
2023-04-09T20:43:41.652Z,10.95
2023-04-09T20:46:08.600Z,10.27
2023-04-09T20:48:35.426Z,11.13
2023-04-09T20:51:03.938Z,10.45
2023-04-09T20:53:30.798Z,11.05
2023-04-09T20:55:57.613Z,9.90
2023-04-09T20:58:24.519Z,11.35
2023-04-09T21:00:51.408Z,12.63
2023-04-09T21:03:18.412Z,11.38
2023-04-09T21:05:45.357Z,11.02
2023-04-09T21:08:12.095Z,11.90
2023-04-09T21:10:39.007Z,10.07
2023-04-09T21:13:05.955Z,11.67
2023-04-09T21:15:32.880Z,12.38
2023-04-09T21:17:59.760Z,11.98
2023-04-09T21:20:26.674Z,11.05
2023-04-09T21:22:53.442Z,12.20
2023-04-09T21:25:20.288Z,11.70
2023-04-09T21:27:47.160Z,11.90
2023-04-09T21:30:14.060Z,11.57
2023-04-09T21:32:40.911Z,10.65
2023-04-09T21:35:08.059Z,12.13
2023-04-09T21:37:36.887Z,10.97
2023-04-09T21:40:04.691Z,10.88
2023-04-09T21:42:31.564Z,10.77
2023-04-09T21:44:58.370Z,12.30
2023-04-09T21:47:25.886Z,12.10
2023-04-09T21:49:52.692Z,10.57
2023-04-09T21:52:19.582Z,11.07
2023-04-09T21:54:46.404Z,10.70
2023-04-09T21:57:13.322Z,10.57
2023-04-09T21:59:40.149Z,12.20
2023-04-09T22:02:08.402Z,12.27
2023-04-09T22:04:35.607Z,10.35
2023-04-09T22:07:02.725Z,11.57
2023-04-09T22:09:30.502Z,10.52
2023-04-09T22:11:58.356Z,11.55
2023-04-09T22:14:25.195Z,10.13
2023-04-09T22:16:52.432Z,11.02
2023-04-09T22:19:19.198Z,10.77
2023-04-09T22:21:45.988Z,10.95
2023-04-09T22:24:12.764Z,11.38
2023-04-09T22:26:39.693Z,12.10
2023-04-09T22:29:06.970Z,10.40
2023-04-09T22:31:33.955Z,12.35
2023-04-09T22:34:10.012Z,9.95
2023-04-09T22:36:44.458Z,10.35
2023-04-09T22:39:11.411Z,10.70
2023-04-09T22:41:39.274Z,11.85
2023-04-09T22:44:06.245Z,10.85
2023-04-09T22:46:33.108Z,10.27
2023-04-09T22:49:05.096Z,9.82
2023-04-09T22:51:32.730Z,11.50
2023-04-09T22:53:59.494Z,11.50
2023-04-09T22:56:26.334Z,10.32
2023-04-09T22:58:53.317Z,10.75
2023-04-09T23:01:20.471Z,10.65
2023-04-09T23:03:50.184Z,12.70
2023-04-09T23:06:17.007Z,10.75
2023-04-09T23:08:44.460Z,10.00
2023-04-09T23:11:11.489Z,10.65
2023-04-09T23:13:38.844Z,11.07
2023-04-09T23:16:07.404Z,9.57
2023-04-09T23:18:37.167Z,10.75
2023-04-09T23:21:08.399Z,10.18
2023-04-09T23:23:36.238Z,9.82
2023-04-09T23:26:03.618Z,11.25
2023-04-09T23:28:31.278Z,11.13
2023-04-09T23:30:58.350Z,10.52
2023-04-09T23:33:25.166Z,10.38
2023-04-09T23:35:51.971Z,11.60
2023-04-09T23:38:18.795Z,12.93
2023-04-09T23:40:45.593Z,10.07
2023-04-09T23:43:12.388Z,11.85
2023-04-09T23:45:39.124Z,11.85
2023-04-09T23:48:06.490Z,11.02
2023-04-09T23:50:33.463Z,11.80
2023-04-09T23:53:00.280Z,11.20
2023-04-09T23:55:27.039Z,10.52
2023-04-09T23:57:54.204Z,10.15
